sensor_id;sensor_type;location;lat;lon;timestamp;P1;durP1;ratioP1;P2;durP2;ratioP2
49139;SDS011;34959;49.310;8.646;2024-01-15T00:00:33;8.13;;;4.53;;
49139;SDS011;34959;49.310;8.646;2024-01-15T00:02:58;10.95;;;4.35;;
49139;SDS011;34959;49.310;8.646;2024-01-15T00:05:24;7.35;;;4.13;;
49139;SDS011;34959;49.310;8.646;2024-01-15T00:07:49;8.73;;;4.03;;
49139;SDS011;34959;49.310;8.646;2024-01-15T00:10:14;6.78;;;4.40;;
49139;SDS011;34959;49.310;8.646;2024-01-15T00:12:40;8.10;;;4.50;;
49139;SDS011;34959;49.310;8.646;2024-01-15T00:15:05;9.15;;;4.10;;
49139;SDS011;34959;49.310;8.646;2024-01-15T00:17:31;9.85;;;4.30;;
49139;SDS011;34959;49.310;8.646;2024-01-15T00:19:56;8.75;;;4.55;;
49139;SDS011;34959;49.310;8.646;2024-01-15T00:22:23;9.43;;;4.80;;
49139;SDS011;34959;49.310;8.646;2024-01-15T00:24:50;8.13;;;4.30;;
49139;SDS011;34959;49.310;8.646;2024-01-15T00:27:15;9.57;;;4.95;;
49139;SDS011;34959;49.310;8.646;2024-01-15T00:29:41;8.30;;;4.60;;
49139;SDS011;34959;49.310;8.646;2024-01-15T00:32:06;10.15;;;4.25;;
49139;SDS011;34959;49.310;8.646;2024-01-15T00:34:31;14.50;;;5.38;;
49139;SDS011;34959;49.310;8.646;2024-01-15T00:36:57;11.10;;;4.25;;
49139;SDS011;34959;49.310;8.646;2024-01-15T00:39:22;9.02;;;4.50;;
49139;SDS011;34959;49.310;8.646;2024-01-15T00:41:48;6.97;;;4.22;;
49139;SDS011;34959;49.310;8.646;2024-01-15T00:44:13;6.70;;;4.38;;
49139;SDS011;34959;49.310;8.646;2024-01-15T00:46:45;7.30;;;4.15;;
49139;SDS011;34959;49.310;8.646;2024-01-15T00:51:37;8.45;;;3.97;;
49139;SDS011;34959;49.310;8.646;2024-01-15T00:54:02;5.32;;;3.30;;
49139;SDS011;34959;49.310;8.646;2024-01-15T00:56:28;8.35;;;4.05;;
49139;SDS011;34959;49.310;8.646;2024-01-15T00:58:53;7.18;;;4.00;;
49139;SDS011;34959;49.310;8.646;2024-01-15T01:01:18;8.65;;;3.65;;
49139;SDS011;34959;49.310;8.646;2024-01-15T01:03:44;5.53;;;3.85;;
49139;SDS011;34959;49.310;8.646;2024-01-15T01:06:09;6.97;;;4.15;;
49139;SDS011;34959;49.310;8.646;2024-01-15T01:08:34;8.02;;;3.65;;
49139;SDS011;34959;49.310;8.646;2024-01-15T01:11:00;4.88;;;3.42;;
49139;SDS011;34959;49.310;8.646;2024-01-15T01:13:25;7.03;;;3.42;;
49139;SDS011;34959;49.310;8.646;2024-01-15T01:15:51;5.93;;;3.63;;
49139;SDS011;34959;49.310;8.646;2024-01-15T01:18:16;6.28;;;4.20;;
49139;SDS011;34959;49.310;8.646;2024-01-15T01:20:41;5.97;;;3.60;;
49139;SDS011;34959;49.310;8.646;2024-01-15T01:23:07;4.55;;;3.13;;
49139;SDS011;34959;49.310;8.646;2024-01-15T01:25:32;5.75;;;3.42;;
49139;SDS011;34959;49.310;8.646;2024-01-15T01:27:58;10.73;;;3.47;;
49139;SDS011;34959;49.310;8.646;2024-01-15T01:30:23;10.05;;;3.30;;
49139;SDS011;34959;49.310;8.646;2024-01-15T01:32:48;6.38;;;3.70;;
49139;SDS011;34959;49.310;8.646;2024-01-15T01:35:14;10.23;;;4.00;;
49139;SDS011;34959;49.310;8.646;2024-01-15T01:37:39;9.23;;;3.78;;
49139;SDS011;34959;49.310;8.646;2024-01-15T01:40:05;6.13;;;4.15;;
49139;SDS011;34959;49.310;8.646;2024-01-15T01:42:31;6.47;;;3.08;;
49139;SDS011;34959;49.310;8.646;2024-01-15T01:44:56;7.63;;;4.13;;
49139;SDS011;34959;49.310;8.646;2024-01-15T01:47:21;7.10;;;3.75;;
49139;SDS011;34959;49.310;8.646;2024-01-15T01:49:47;14.32;;;3.83;;
49139;SDS011;34959;49.310;8.646;2024-01-15T01:52:12;9.93;;;4.28;;
49139;SDS011;34959;49.310;8.646;2024-01-15T01:54:38;8.63;;;3.33;;
49139;SDS011;34959;49.310;8.646;2024-01-15T01:57:05;13.82;;;3.28;;
49139;SDS011;34959;49.310;8.646;2024-01-15T01:59:31;12.77;;;3.70;;
49139;SDS011;34959;49.310;8.646;2024-01-15T02:01:57;10.20;;;3.85;;
49139;SDS011;34959;49.310;8.646;2024-01-15T02:04:24;8.43;;;3.90;;
49139;SDS011;34959;49.310;8.646;2024-01-15T02:06:50;6.68;;;3.50;;
49139;SDS011;34959;49.310;8.646;2024-01-15T02:09:15;8.63;;;3.80;;
49139;SDS011;34959;49.310;8.646;2024-01-15T02:11:42;6.72;;;3.65;;
49139;SDS011;34959;49.310;8.646;2024-01-15T02:14:08;7.22;;;3.67;;
49139;SDS011;34959;49.310;8.646;2024-01-15T02:16:34;8.23;;;3.63;;
49139;SDS011;34959;49.310;8.646;2024-01-15T02:19:00;8.90;;;3.20;;
49139;SDS011;34959;49.310;8.646;2024-01-15T02:21:25;6.78;;;3.55;;
49139;SDS011;34959;49.310;8.646;2024-01-15T02:23:53;5.55;;;3.50;;
49139;SDS011;34959;49.310;8.646;2024-01-15T02:26:18;5.95;;;4.00;;
49139;SDS011;34959;49.310;8.646;2024-01-15T02:28:44;5.70;;;3.63;;
49139;SDS011;34959;49.310;8.646;2024-01-15T02:31:09;7.10;;;3.92;;
49139;SDS011;34959;49.310;8.646;2024-01-15T02:33:35;5.00;;;3.50;;
49139;SDS011;34959;49.310;8.646;2024-01-15T02:36:00;8.10;;;3.53;;
49139;SDS011;34959;49.310;8.646;2024-01-15T02:38:26;5.10;;;3.60;;
49139;SDS011;34959;49.310;8.646;2024-01-15T02:40:51;5.90;;;3.30;;
49139;SDS011;34959;49.310;8.646;2024-01-15T02:43:17;5.93;;;3.45;;
49139;SDS011;34959;49.310;8.646;2024-01-15T02:45:44;5.53;;;3.38;;
49139;SDS011;34959;49.310;8.646;2024-01-15T02:48:09;4.30;;;3.13;;
49139;SDS011;34959;49.310;8.646;2024-01-15T02:50:35;5.47;;;3.58;;
49139;SDS011;34959;49.310;8.646;2024-01-15T02:53:00;6.53;;;3.53;;
49139;SDS011;34959;49.310;8.646;2024-01-15T02:55:25;4.93;;;3.55;;
49139;SDS011;34959;49.310;8.646;2024-01-15T02:57:51;5.57;;;3.42;;
49139;SDS011;34959;49.310;8.646;2024-01-15T03:00:16;4.40;;;3.05;;
49139;SDS011;34959;49.310;8.646;2024-01-15T03:02:44;4.95;;;3.30;;
49139;SDS011;34959;49.310;8.646;2024-01-15T03:05:09;6.10;;;3.72;;
49139;SDS011;34959;49.310;8.646;2024-01-15T03:07:35;5.30;;;4.10;;
49139;SDS011;34959;49.310;8.646;2024-01-15T03:10:01;5.32;;;3.55;;
49139;SDS011;34959;49.310;8.646;2024-01-15T03:12:26;5.03;;;3.67;;
49139;SDS011;34959;49.310;8.646;2024-01-15T03:14:51;5.07;;;3.70;;
49139;SDS011;34959;49.310;8.646;2024-01-15T03:17:17;6.00;;;3.65;;
49139;SDS011;34959;49.310;8.646;2024-01-15T03:19:42;5.70;;;3.72;;
49139;SDS011;34959;49.310;8.646;2024-01-15T03:22:07;5.00;;;3.28;;
49139;SDS011;34959;49.310;8.646;2024-01-15T03:24:34;4.55;;;3.35;;
49139;SDS011;34959;49.310;8.646;2024-01-15T03:26:59;5.70;;;3.55;;
49139;SDS011;34959;49.310;8.646;2024-01-15T03:29:25;4.97;;;3.20;;
49139;SDS011;34959;49.310;8.646;2024-01-15T03:31:51;7.57;;;3.40;;
49139;SDS011;34959;49.310;8.646;2024-01-15T03:34:16;4.72;;;3.30;;
49139;SDS011;34959;49.310;8.646;2024-01-15T03:36:42;4.38;;;3.17;;
49139;SDS011;34959;49.310;8.646;2024-01-15T03:39:07;4.75;;;2.92;;
49139;SDS011;34959;49.310;8.646;2024-01-15T03:41:32;4.20;;;3.17;;
49139;SDS011;34959;49.310;8.646;2024-01-15T03:43:58;4.20;;;3.35;;
49139;SDS011;34959;49.310;8.646;2024-01-15T03:46:24;5.95;;;3.58;;
49139;SDS011;34959;49.310;8.646;2024-01-15T03:48:49;5.75;;;2.95;;
49139;SDS011;34959;49.310;8.646;2024-01-15T03:51:16;4.00;;;3.13;;
49139;SDS011;34959;49.310;8.646;2024-01-15T03:53:42;4.05;;;3.17;;
49139;SDS011;34959;49.310;8.646;2024-01-15T03:56:07;5.53;;;3.65;;
49139;SDS011;34959;49.310;8.646;2024-01-15T03:58:33;7.82;;;3.30;;
49139;SDS011;34959;49.310;8.646;2024-01-15T04:00:58;4.68;;;3.03;;
49139;SDS011;34959;49.310;8.646;2024-01-15T04:03:23;5.43;;;3.40;;
49139;SDS011;34959;49.310;8.646;2024-01-15T04:05:49;4.70;;;3.33;;
49139;SDS011;34959;49.310;8.646;2024-01-15T04:08:14;5.25;;;3.40;;
49139;SDS011;34959;49.310;8.646;2024-01-15T04:10:40;5.03;;;3.30;;
49139;SDS011;34959;49.310;8.646;2024-01-15T04:13:05;4.55;;;3.15;;
49139;SDS011;34959;49.310;8.646;2024-01-15T04:15:30;5.47;;;3.30;;
49139;SDS011;34959;49.310;8.646;2024-01-15T04:17:56;8.20;;;3.47;;
49139;SDS011;34959;49.310;8.646;2024-01-15T04:20:21;6.68;;;3.38;;
49139;SDS011;34959;49.310;8.646;2024-01-15T04:22:47;4.32;;;2.90;;
49139;SDS011;34959;49.310;8.646;2024-01-15T04:25:13;4.68;;;3.17;;
49139;SDS011;34959;49.310;8.646;2024-01-15T04:27:38;3.95;;;3.10;;
49139;SDS011;34959;49.310;8.646;2024-01-15T04:30:03;7.53;;;3.25;;
49139;SDS011;34959;49.310;8.646;2024-01-15T04:32:30;5.43;;;3.22;;
49139;SDS011;34959;49.310;8.646;2024-01-15T04:34:55;5.88;;;3.42;;
49139;SDS011;34959;49.310;8.646;2024-01-15T04:37:20;4.13;;;2.80;;
49139;SDS011;34959;49.310;8.646;2024-01-15T04:39:46;5.40;;;2.90;;
49139;SDS011;34959;49.310;8.646;2024-01-15T04:42:11;3.70;;;2.97;;
49139;SDS011;34959;49.310;8.646;2024-01-15T04:44:37;3.75;;;2.67;;
49139;SDS011;34959;49.310;8.646;2024-01-15T04:47:02;3.72;;;2.63;;
49139;SDS011;34959;49.310;8.646;2024-01-15T04:49:28;6.18;;;3.28;;
49139;SDS011;34959;49.310;8.646;2024-01-15T04:51:54;4.30;;;3.13;;
49139;SDS011;34959;49.310;8.646;2024-01-15T04:54:19;3.67;;;2.78;;
49139;SDS011;34959;49.310;8.646;2024-01-15T04:56:45;4.53;;;3.25;;
49139;SDS011;34959;49.310;8.646;2024-01-15T04:59:11;4.55;;;2.70;;
49139;SDS011;34959;49.310;8.646;2024-01-15T05:01:36;3.92;;;2.83;;
49139;SDS011;34959;49.310;8.646;2024-01-15T05:04:02;3.95;;;2.75;;
49139;SDS011;34959;49.310;8.646;2024-01-15T05:06:27;4.85;;;2.80;;
49139;SDS011;34959;49.310;8.646;2024-01-15T05:08:52;4.57;;;3.10;;
49139;SDS011;34959;49.310;8.646;2024-01-15T05:11:18;5.03;;;2.90;;
49139;SDS011;34959;49.310;8.646;2024-01-15T05:13:43;5.22;;;3.10;;
49139;SDS011;34959;49.310;8.646;2024-01-15T05:16:09;3.53;;;2.67;;
49139;SDS011;34959;49.310;8.646;2024-01-15T05:18:34;3.92;;;2.83;;
49139;SDS011;34959;49.310;8.646;2024-01-15T05:20:59;5.85;;;2.95;;
49139;SDS011;34959;49.310;8.646;2024-01-15T05:23:25;4.45;;;2.92;;
49139;SDS011;34959;49.310;8.646;2024-01-15T05:25:50;4.15;;;2.75;;
49139;SDS011;34959;49.310;8.646;2024-01-15T05:28:16;3.90;;;3.03;;
49139;SDS011;34959;49.310;8.646;2024-01-15T05:30:42;4.47;;;2.83;;
49139;SDS011;34959;49.310;8.646;2024-01-15T05:33:07;3.70;;;2.67;;
49139;SDS011;34959;49.310;8.646;2024-01-15T05:35:33;6.28;;;3.13;;
49139;SDS011;34959;49.310;8.646;2024-01-15T05:37:58;3.67;;;2.80;;
49139;SDS011;34959;49.310;8.646;2024-01-15T05:40:24;3.83;;;2.65;;
49139;SDS011;34959;49.310;8.646;2024-01-15T05:42:52;5.30;;;3.00;;
49139;SDS011;34959;49.310;8.646;2024-01-15T05:45:17;4.93;;;3.08;;
49139;SDS011;34959;49.310;8.646;2024-01-15T05:47:42;4.20;;;3.20;;
49139;SDS011;34959;49.310;8.646;2024-01-15T05:50:09;3.92;;;2.97;;
49139;SDS011;34959;49.310;8.646;2024-01-15T05:52:34;3.90;;;2.80;;
49139;SDS011;34959;49.310;8.646;2024-01-15T05:55:00;3.63;;;2.65;;
49139;SDS011;34959;49.310;8.646;2024-01-15T05:57:25;3.78;;;3.03;;
49139;SDS011;34959;49.310;8.646;2024-01-15T05:59:50;5.35;;;2.83;;
49139;SDS011;34959;49.310;8.646;2024-01-15T06:02:16;7.35;;;3.08;;
49139;SDS011;34959;49.310;8.646;2024-01-15T06:04:41;5.22;;;2.70;;
49139;SDS011;34959;49.310;8.646;2024-01-15T06:07:07;3.90;;;2.75;;
49139;SDS011;34959;49.310;8.646;2024-01-15T06:09:32;3.30;;;2.55;;
49139;SDS011;34959;49.310;8.646;2024-01-15T06:11:58;3.55;;;2.65;;
49139;SDS011;34959;49.310;8.646;2024-01-15T06:14:23;4.25;;;2.63;;
49139;SDS011;34959;49.310;8.646;2024-01-15T06:16:51;4.85;;;2.80;;
49139;SDS011;34959;49.310;8.646;2024-01-15T06:19:17;4.40;;;2.90;;
49139;SDS011;34959;49.310;8.646;2024-01-15T06:21:42;3.60;;;2.90;;
49139;SDS011;34959;49.310;8.646;2024-01-15T06:24:17;3.47;;;2.58;;
49139;SDS011;34959;49.310;8.646;2024-01-15T06:26:46;4.60;;;2.88;;
49139;SDS011;34959;49.310;8.646;2024-01-15T06:29:11;4.25;;;3.40;;
49139;SDS011;34959;49.310;8.646;2024-01-15T06:31:37;3.30;;;2.65;;
49139;SDS011;34959;49.310;8.646;2024-01-15T06:34:02;2.90;;;2.47;;
49139;SDS011;34959;49.310;8.646;2024-01-15T06:36:27;4.63;;;3.03;;
49139;SDS011;34959;49.310;8.646;2024-01-15T06:38:53;4.28;;;2.67;;
49139;SDS011;34959;49.310;8.646;2024-01-15T06:41:19;3.30;;;2.40;;
49139;SDS011;34959;49.310;8.646;2024-01-15T06:43:44;3.92;;;2.80;;
49139;SDS011;34959;49.310;8.646;2024-01-15T06:46:09;3.58;;;2.72;;
49139;SDS011;34959;49.310;8.646;2024-01-15T06:48:35;3.58;;;2.53;;
49139;SDS011;34959;49.310;8.646;2024-01-15T06:51:00;3.83;;;2.75;;
49139;SDS011;34959;49.310;8.646;2024-01-15T06:53:25;3.85;;;2.80;;
49139;SDS011;34959;49.310;8.646;2024-01-15T06:55:51;3.55;;;2.92;;
49139;SDS011;34959;49.310;8.646;2024-01-15T06:58:16;4.03;;;2.65;;
49139;SDS011;34959;49.310;8.646;2024-01-15T07:00:42;8.77;;;3.20;;
49139;SDS011;34959;49.310;8.646;2024-01-15T07:03:07;4.35;;;2.70;;
49139;SDS011;34959;49.310;8.646;2024-01-15T07:05:32;4.10;;;2.90;;
49139;SDS011;34959;49.310;8.646;2024-01-15T07:07:58;5.10;;;2.92;;
49139;SDS011;34959;49.310;8.646;2024-01-15T07:10:24;7.50;;;2.97;;
49139;SDS011;34959;49.310;8.646;2024-01-15T07:12:49;3.30;;;2.60;;
49139;SDS011;34959;49.310;8.646;2024-01-15T07:15:15;7.95;;;2.53;;
49139;SDS011;34959;49.310;8.646;2024-01-15T07:17:40;16.48;;;2.90;;
49139;SDS011;34959;49.310;8.646;2024-01-15T07:20:06;4.97;;;2.95;;
49139;SDS011;34959;49.310;8.646;2024-01-15T07:22:35;3.50;;;2.72;;
49139;SDS011;34959;49.310;8.646;2024-01-15T07:25:01;3.67;;;2.72;;
49139;SDS011;34959;49.310;8.646;2024-01-15T07:27:26;5.32;;;2.35;;
49139;SDS011;34959;49.310;8.646;2024-01-15T07:29:52;4.38;;;2.63;;
49139;SDS011;34959;49.310;8.646;2024-01-15T07:32:17;4.13;;;2.80;;
49139;SDS011;34959;49.310;8.646;2024-01-15T07:34:43;3.90;;;2.80;;
49139;SDS011;34959;49.310;8.646;2024-01-15T07:37:08;11.18;;;2.80;;
49139;SDS011;34959;49.310;8.646;2024-01-15T07:39:33;4.70;;;3.10;;
49139;SDS011;34959;49.310;8.646;2024-01-15T07:41:59;5.30;;;2.63;;
49139;SDS011;34959;49.310;8.646;2024-01-15T07:44:25;5.85;;;2.72;;
49139;SDS011;34959;49.310;8.646;2024-01-15T07:46:50;11.73;;;2.65;;
49139;SDS011;34959;49.310;8.646;2024-01-15T07:49:16;3.05;;;2.45;;
49139;SDS011;34959;49.310;8.646;2024-01-15T07:51:41;4.80;;;2.55;;
49139;SDS011;34959;49.310;8.646;2024-01-15T07:54:08;6.07;;;3.08;;
49139;SDS011;34959;49.310;8.646;2024-01-15T07:56:34;5.45;;;2.58;;
49139;SDS011;34959;49.310;8.646;2024-01-15T07:58:59;4.55;;;2.30;;
49139;SDS011;34959;49.310;8.646;2024-01-15T08:01:25;4.07;;;2.75;;
49139;SDS011;34959;49.310;8.646;2024-01-15T08:03:50;5.43;;;3.05;;
49139;SDS011;34959;49.310;8.646;2024-01-15T08:06:15;5.97;;;2.63;;
49139;SDS011;34959;49.310;8.646;2024-01-15T08:08:41;3.90;;;2.40;;
49139;SDS011;34959;49.310;8.646;2024-01-15T08:11:06;4.40;;;2.92;;
49139;SDS011;34959;49.310;8.646;2024-01-15T08:13:32;4.90;;;2.55;;
49139;SDS011;34959;49.310;8.646;2024-01-15T08:15:57;4.50;;;3.08;;
49139;SDS011;34959;49.310;8.646;2024-01-15T08:18:23;3.45;;;2.40;;
49139;SDS011;34959;49.310;8.646;2024-01-15T08:20:48;9.55;;;2.88;;
49139;SDS011;34959;49.310;8.646;2024-01-15T08:23:16;4.72;;;2.40;;
49139;SDS011;34959;49.310;8.646;2024-01-15T08:25:41;9.32;;;2.72;;
49139;SDS011;34959;49.310;8.646;2024-01-15T08:28:07;3.80;;;2.17;;
49139;SDS011;34959;49.310;8.646;2024-01-15T08:30:33;5.47;;;2.38;;
49139;SDS011;34959;49.310;8.646;2024-01-15T08:32:59;4.60;;;2.50;;
49139;SDS011;34959;49.310;8.646;2024-01-15T08:35:25;7.20;;;2.95;;
49139;SDS011;34959;49.310;8.646;2024-01-15T08:37:50;4.90;;;2.72;;
49139;SDS011;34959;49.310;8.646;2024-01-15T08:40:16;3.67;;;2.30;;
49139;SDS011;34959;49.310;8.646;2024-01-15T08:42:41;4.05;;;2.50;;
49139;SDS011;34959;49.310;8.646;2024-01-15T08:45:07;4.80;;;2.50;;
49139;SDS011;34959;49.310;8.646;2024-01-15T08:47:33;3.85;;;2.40;;
49139;SDS011;34959;49.310;8.646;2024-01-15T08:49:59;3.45;;;2.53;;
49139;SDS011;34959;49.310;8.646;2024-01-15T08:52:25;4.05;;;2.30;;
49139;SDS011;34959;49.310;8.646;2024-01-15T08:54:50;2.88;;;2.20;;
49139;SDS011;34959;49.310;8.646;2024-01-15T08:57:16;5.93;;;2.63;;
49139;SDS011;34959;49.310;8.646;2024-01-15T08:59:41;3.85;;;2.50;;
49139;SDS011;34959;49.310;8.646;2024-01-15T09:02:07;8.00;;;2.20;;
49139;SDS011;34959;49.310;8.646;2024-01-15T09:04:32;3.47;;;2.35;;
49139;SDS011;34959;49.310;8.646;2024-01-15T09:06:58;4.90;;;2.20;;
49139;SDS011;34959;49.310;8.646;2024-01-15T09:09:23;6.65;;;2.60;;
49139;SDS011;34959;49.310;8.646;2024-01-15T09:11:50;5.72;;;2.60;;
49139;SDS011;34959;49.310;8.646;2024-01-15T09:14:15;3.38;;;2.03;;
49139;SDS011;34959;49.310;8.646;2024-01-15T09:16:40;5.25;;;2.45;;
49139;SDS011;34959;49.310;8.646;2024-01-15T09:19:06;3.63;;;2.40;;
49139;SDS011;34959;49.310;8.646;2024-01-15T09:21:31;3.90;;;2.63;;
49139;SDS011;34959;49.310;8.646;2024-01-15T09:23:57;3.95;;;2.50;;
49139;SDS011;34959;49.310;8.646;2024-01-15T09:26:23;4.97;;;2.55;;
49139;SDS011;34959;49.310;8.646;2024-01-15T09:28:49;4.57;;;2.13;;
49139;SDS011;34959;49.310;8.646;2024-01-15T09:31:14;3.95;;;2.47;;
49139;SDS011;34959;49.310;8.646;2024-01-15T09:33:42;4.20;;;2.72;;
49139;SDS011;34959;49.310;8.646;2024-01-15T09:36:08;3.55;;;2.47;;
49139;SDS011;34959;49.310;8.646;2024-01-15T09:38:33;3.63;;;2.30;;
49139;SDS011;34959;49.310;8.646;2024-01-15T09:40:59;4.72;;;2.65;;
49139;SDS011;34959;49.310;8.646;2024-01-15T09:43:25;3.15;;;2.33;;
49139;SDS011;34959;49.310;8.646;2024-01-15T09:45:51;3.47;;;2.50;;
49139;SDS011;34959;49.310;8.646;2024-01-15T09:48:16;3.38;;;2.28;;
49139;SDS011;34959;49.310;8.646;2024-01-15T09:50:42;3.70;;;2.38;;
49139;SDS011;34959;49.310;8.646;2024-01-15T09:53:08;7.25;;;2.67;;
49139;SDS011;34959;49.310;8.646;2024-01-15T09:55:34;4.40;;;2.70;;
49139;SDS011;34959;49.310;8.646;2024-01-15T09:58:01;3.85;;;2.53;;
49139;SDS011;34959;49.310;8.646;2024-01-15T10:00:27;4.57;;;2.75;;
49139;SDS011;34959;49.310;8.646;2024-01-15T10:02:53;4.78;;;2.60;;
49139;SDS011;34959;49.310;8.646;2024-01-15T10:05:19;7.45;;;2.35;;
49139;SDS011;34959;49.310;8.646;2024-01-15T10:07:44;3.85;;;2.42;;
49139;SDS011;34959;49.310;8.646;2024-01-15T10:10:11;4.63;;;2.47;;
49139;SDS011;34959;49.310;8.646;2024-01-15T10:12:36;3.95;;;2.40;;
49139;SDS011;34959;49.310;8.646;2024-01-15T10:15:03;3.40;;;2.30;;
49139;SDS011;34959;49.310;8.646;2024-01-15T10:17:29;4.78;;;2.33;;
49139;SDS011;34959;49.310;8.646;2024-01-15T10:19:56;4.00;;;2.38;;
49139;SDS011;34959;49.310;8.646;2024-01-15T10:22:22;6.07;;;2.30;;
49139;SDS011;34959;49.310;8.646;2024-01-15T10:24:48;3.20;;;2.30;;
49139;SDS011;34959;49.310;8.646;2024-01-15T10:27:13;3.55;;;2.55;;
49139;SDS011;34959;49.310;8.646;2024-01-15T10:29:42;4.80;;;2.22;;
49139;SDS011;34959;49.310;8.646;2024-01-15T10:32:07;3.50;;;2.15;;
49139;SDS011;34959;49.310;8.646;2024-01-15T10:34:37;3.05;;;2.30;;
49139;SDS011;34959;49.310;8.646;2024-01-15T10:37:03;4.47;;;2.50;;
49139;SDS011;34959;49.310;8.646;2024-01-15T10:39:28;4.00;;;2.58;;
49139;SDS011;34959;49.310;8.646;2024-01-15T10:41:55;3.45;;;2.30;;
49139;SDS011;34959;49.310;8.646;2024-01-15T10:44:20;3.88;;;2.53;;
49139;SDS011;34959;49.310;8.646;2024-01-15T10:46:45;3.17;;;2.25;;
49139;SDS011;34959;49.310;8.646;2024-01-15T10:49:12;6.18;;;2.40;;
49139;SDS011;34959;49.310;8.646;2024-01-15T10:51:37;3.90;;;2.67;;
49139;SDS011;34959;49.310;8.646;2024-01-15T10:54:03;3.42;;;2.55;;
49139;SDS011;34959;49.310;8.646;2024-01-15T10:56:30;3.13;;;2.30;;
49139;SDS011;34959;49.310;8.646;2024-01-15T10:58:58;2.25;;;2.00;;
49139;SDS011;34959;49.310;8.646;2024-01-15T11:01:24;4.40;;;2.55;;
49139;SDS011;34959;49.310;8.646;2024-01-15T11:03:49;4.93;;;2.30;;
49139;SDS011;34959;49.310;8.646;2024-01-15T11:06:22;3.47;;;2.10;;
49139;SDS011;34959;49.310;8.646;2024-01-15T11:08:49;3.25;;;2.15;;
49139;SDS011;34959;49.310;8.646;2024-01-15T11:11:15;4.13;;;2.30;;
49139;SDS011;34959;49.310;8.646;2024-01-15T11:13:41;3.60;;;2.20;;
49139;SDS011;34959;49.310;8.646;2024-01-15T11:16:12;4.53;;;2.53;;
49139;SDS011;34959;49.310;8.646;2024-01-15T11:18:42;3.28;;;2.10;;
49139;SDS011;34959;49.310;8.646;2024-01-15T11:29:03;2.45;;;1.67;;
49139;SDS011;34959;49.310;8.646;2024-01-15T11:34:04;3.15;;;2.20;;
49139;SDS011;34959;49.310;8.646;2024-01-15T11:39:39;2.22;;;1.80;;
49139;SDS011;34959;49.310;8.646;2024-01-15T11:42:05;2.83;;;2.00;;
49139;SDS011;34959;49.310;8.646;2024-01-15T11:44:30;3.90;;;2.00;;
49139;SDS011;34959;49.310;8.646;2024-01-15T11:47:03;2.85;;;2.17;;
49139;SDS011;34959;49.310;8.646;2024-01-15T11:52:19;2.65;;;2.20;;
49139;SDS011;34959;49.310;8.646;2024-01-15T11:54:55;2.60;;;1.88;;
49139;SDS011;34959;49.310;8.646;2024-01-15T11:57:41;3.03;;;1.90;;
49139;SDS011;34959;49.310;8.646;2024-01-15T12:00:20;3.42;;;2.00;;
49139;SDS011;34959;49.310;8.646;2024-01-15T12:02:46;3.22;;;2.30;;
49139;SDS011;34959;49.310;8.646;2024-01-15T12:05:13;4.10;;;2.08;;
49139;SDS011;34959;49.310;8.646;2024-01-15T12:07:43;3.03;;;2.10;;
49139;SDS011;34959;49.310;8.646;2024-01-15T12:10:16;3.75;;;1.88;;
49139;SDS011;34959;49.310;8.646;2024-01-15T12:15:32;3.13;;;2.10;;
49139;SDS011;34959;49.310;8.646;2024-01-15T12:17:58;2.53;;;1.98;;
49139;SDS011;34959;49.310;8.646;2024-01-15T12:20:26;3.90;;;2.15;;
49139;SDS011;34959;49.310;8.646;2024-01-15T12:22:51;3.42;;;1.98;;
49139;SDS011;34959;49.310;8.646;2024-01-15T12:25:17;3.53;;;2.38;;
49139;SDS011;34959;49.310;8.646;2024-01-15T12:27:42;2.90;;;2.10;;
49139;SDS011;34959;49.310;8.646;2024-01-15T12:30:10;3.42;;;2.08;;
49139;SDS011;34959;49.310;8.646;2024-01-15T12:32:36;3.20;;;1.88;;
49139;SDS011;34959;49.310;8.646;2024-01-15T12:35:02;3.28;;;2.05;;
49139;SDS011;34959;49.310;8.646;2024-01-15T12:37:28;3.25;;;1.95;;
49139;SDS011;34959;49.310;8.646;2024-01-15T12:39:54;3.65;;;2.10;;
49139;SDS011;34959;49.310;8.646;2024-01-15T12:42:20;3.88;;;2.00;;
49139;SDS011;34959;49.310;8.646;2024-01-15T12:44:46;3.70;;;1.88;;
49139;SDS011;34959;49.310;8.646;2024-01-15T12:47:11;3.70;;;2.20;;
49139;SDS011;34959;49.310;8.646;2024-01-15T12:49:37;2.75;;;2.03;;
49139;SDS011;34959;49.310;8.646;2024-01-15T12:52:07;2.90;;;2.03;;
49139;SDS011;34959;49.310;8.646;2024-01-15T12:54:33;4.20;;;2.08;;
49139;SDS011;34959;49.310;8.646;2024-01-15T12:56:59;4.53;;;2.10;;
49139;SDS011;34959;49.310;8.646;2024-01-15T12:59:24;5.07;;;2.15;;
49139;SDS011;34959;49.310;8.646;2024-01-15T13:01:49;3.17;;;1.98;;
49139;SDS011;34959;49.310;8.646;2024-01-15T13:04:24;3.55;;;2.38;;
49139;SDS011;34959;49.310;8.646;2024-01-15T13:06:50;3.10;;;2.10;;
49139;SDS011;34959;49.310;8.646;2024-01-15T13:09:16;3.00;;;2.22;;
49139;SDS011;34959;49.310;8.646;2024-01-15T13:11:43;4.50;;;2.28;;
49139;SDS011;34959;49.310;8.646;2024-01-15T13:14:09;2.88;;;1.95;;
49139;SDS011;34959;49.310;8.646;2024-01-15T13:16:35;3.22;;;2.00;;
49139;SDS011;34959;49.310;8.646;2024-01-15T13:19:00;4.00;;;2.00;;
49139;SDS011;34959;49.310;8.646;2024-01-15T13:21:26;3.10;;;2.22;;
49139;SDS011;34959;49.310;8.646;2024-01-15T13:23:51;3.13;;;1.88;;
49139;SDS011;34959;49.310;8.646;2024-01-15T13:26:16;2.05;;;1.67;;
49139;SDS011;34959;49.310;8.646;2024-01-15T13:28:44;4.07;;;2.00;;
49139;SDS011;34959;49.310;8.646;2024-01-15T13:31:09;3.20;;;2.03;;
49139;SDS011;34959;49.310;8.646;2024-01-15T13:33:35;2.30;;;1.70;;
49139;SDS011;34959;49.310;8.646;2024-01-15T13:36:00;2.03;;;1.70;;
49139;SDS011;34959;49.310;8.646;2024-01-15T13:38:26;4.32;;;2.10;;
49139;SDS011;34959;49.310;8.646;2024-01-15T13:40:52;3.17;;;2.10;;
49139;SDS011;34959;49.310;8.646;2024-01-15T13:43:20;14.50;;;2.75;;
49139;SDS011;34959;49.310;8.646;2024-01-15T13:45:45;5.03;;;2.08;;
49139;SDS011;34959;49.310;8.646;2024-01-15T13:48:11;5.45;;;1.98;;
49139;SDS011;34959;49.310;8.646;2024-01-15T13:50:37;6.35;;;2.13;;
49139;SDS011;34959;49.310;8.646;2024-01-15T13:53:02;5.30;;;1.90;;
49139;SDS011;34959;49.310;8.646;2024-01-15T13:55:29;5.22;;;2.38;;
49139;SDS011;34959;49.310;8.646;2024-01-15T13:57:56;3.17;;;2.10;;
49139;SDS011;34959;49.310;8.646;2024-01-15T14:00:22;3.63;;;1.90;;
49139;SDS011;34959;49.310;8.646;2024-01-15T14:02:48;2.75;;;1.80;;
49139;SDS011;34959;49.310;8.646;2024-01-15T14:05:13;4.07;;;1.95;;
49139;SDS011;34959;49.310;8.646;2024-01-15T14:07:42;3.38;;;1.73;;
49139;SDS011;34959;49.310;8.646;2024-01-15T14:10:08;3.60;;;2.15;;
49139;SDS011;34959;49.310;8.646;2024-01-15T14:12:35;3.97;;;1.70;;
49139;SDS011;34959;49.310;8.646;2024-01-15T14:15:01;2.83;;;1.73;;
49139;SDS011;34959;49.310;8.646;2024-01-15T14:17:28;3.10;;;1.50;;
49139;SDS011;34959;49.310;8.646;2024-01-15T14:19:53;3.83;;;1.60;;
49139;SDS011;34959;49.310;8.646;2024-01-15T14:22:18;4.00;;;1.80;;
49139;SDS011;34959;49.310;8.646;2024-01-15T14:24:44;2.38;;;1.77;;
49139;SDS011;34959;49.310;8.646;2024-01-15T14:27:09;3.20;;;1.95;;
49139;SDS011;34959;49.310;8.646;2024-01-15T14:29:35;3.65;;;1.75;;
49139;SDS011;34959;49.310;8.646;2024-01-15T14:32:01;3.50;;;2.35;;
49139;SDS011;34959;49.310;8.646;2024-01-15T14:34:26;6.32;;;2.45;;
49139;SDS011;34959;49.310;8.646;2024-01-15T14:36:52;3.80;;;2.00;;
49139;SDS011;34959;49.310;8.646;2024-01-15T14:39:23;2.83;;;1.73;;
49139;SDS011;34959;49.310;8.646;2024-01-15T14:41:49;5.57;;;2.20;;
49139;SDS011;34959;49.310;8.646;2024-01-15T14:44:15;5.00;;;2.10;;
49139;SDS011;34959;49.310;8.646;2024-01-15T14:46:40;4.35;;;1.77;;
49139;SDS011;34959;49.310;8.646;2024-01-15T14:49:05;3.03;;;1.90;;
49139;SDS011;34959;49.310;8.646;2024-01-15T14:51:31;3.80;;;1.80;;
49139;SDS011;34959;49.310;8.646;2024-01-15T14:53:56;4.97;;;2.05;;
49139;SDS011;34959;49.310;8.646;2024-01-15T14:56:22;2.95;;;1.80;;
49139;SDS011;34959;49.310;8.646;2024-01-15T14:58:47;4.03;;;1.90;;
49139;SDS011;34959;49.310;8.646;2024-01-15T15:01:13;3.38;;;1.90;;